sensor_id;sensor_type;location;lat;lon;timestamp;P1;durP1;ratioP1;P2;durP2;ratioP2
39322;SDS011;25036;53.638;10.134;2023-05-07T00:00:35;6.23;;;5.63;;
39322;SDS011;25036;53.638;10.134;2023-05-07T00:01:35;7.63;;;6.10;;
39322;SDS011;25036;53.638;10.134;2023-05-07T00:02:36;7.38;;;6.57;;
39322;SDS011;25036;53.638;10.134;2023-05-07T00:03:37;6.50;;;5.90;;
39322;SDS011;25036;53.638;10.134;2023-05-07T00:04:37;6.32;;;5.57;;
39322;SDS011;25036;53.638;10.134;2023-05-07T00:05:38;6.90;;;5.80;;
39322;SDS011;25036;53.638;10.134;2023-05-07T00:06:39;7.10;;;6.45;;
39322;SDS011;25036;53.638;10.134;2023-05-07T00:07:39;6.57;;;5.97;;
39322;SDS011;25036;53.638;10.134;2023-05-07T00:08:40;7.45;;;6.22;;
39322;SDS011;25036;53.638;10.134;2023-05-07T00:09:40;6.73;;;5.53;;
39322;SDS011;25036;53.638;10.134;2023-05-07T00:10:40;6.20;;;5.60;;
39322;SDS011;25036;53.638;10.134;2023-05-07T00:11:40;6.65;;;5.85;;
39322;SDS011;25036;53.638;10.134;2023-05-07T00:12:41;7.67;;;6.57;;
39322;SDS011;25036;53.638;10.134;2023-05-07T00:13:41;6.90;;;6.10;;
39322;SDS011;25036;53.638;10.134;2023-05-07T00:14:41;7.47;;;6.77;;
39322;SDS011;25036;53.638;10.134;2023-05-07T00:15:41;7.20;;;6.50;;
39322;SDS011;25036;53.638;10.134;2023-05-07T00:16:41;7.67;;;6.90;;
39322;SDS011;25036;53.638;10.134;2023-05-07T00:17:41;8.47;;;6.93;;
39322;SDS011;25036;53.638;10.134;2023-05-07T00:18:41;6.87;;;6.00;;
39322;SDS011;25036;53.638;10.134;2023-05-07T00:19:42;8.20;;;6.57;;
39322;SDS011;25036;53.638;10.134;2023-05-07T00:20:42;8.73;;;6.83;;
39322;SDS011;25036;53.638;10.134;2023-05-07T00:21:42;7.63;;;6.70;;
39322;SDS011;25036;53.638;10.134;2023-05-07T00:22:42;8.73;;;6.77;;
39322;SDS011;25036;53.638;10.134;2023-05-07T00:23:42;8.07;;;6.88;;
39322;SDS011;25036;53.638;10.134;2023-05-07T00:24:42;7.60;;;6.73;;
39322;SDS011;25036;53.638;10.134;2023-05-07T00:25:42;9.10;;;6.60;;
39322;SDS011;25036;53.638;10.134;2023-05-07T00:26:43;7.00;;;6.30;;
39322;SDS011;25036;53.638;10.134;2023-05-07T00:27:43;8.70;;;6.90;;
39322;SDS011;25036;53.638;10.134;2023-05-07T00:28:43;7.80;;;7.00;;
39322;SDS011;25036;53.638;10.134;2023-05-07T00:29:43;7.20;;;6.07;;
39322;SDS011;25036;53.638;10.134;2023-05-07T00:30:43;7.03;;;6.33;;
39322;SDS011;25036;53.638;10.134;2023-05-07T00:31:43;8.93;;;6.43;;
39322;SDS011;25036;53.638;10.134;2023-05-07T00:32:44;7.05;;;6.35;;
39322;SDS011;25036;53.638;10.134;2023-05-07T00:33:45;8.00;;;7.20;;
39322;SDS011;25036;53.638;10.134;2023-05-07T00:34:45;7.10;;;6.50;;
39322;SDS011;25036;53.638;10.134;2023-05-07T00:35:45;7.60;;;6.53;;
39322;SDS011;25036;53.638;10.134;2023-05-07T00:36:46;7.20;;;6.50;;
39322;SDS011;25036;53.638;10.134;2023-05-07T00:37:46;7.50;;;6.68;;
39322;SDS011;25036;53.638;10.134;2023-05-07T00:38:46;8.18;;;6.57;;
39322;SDS011;25036;53.638;10.134;2023-05-07T00:39:46;7.57;;;6.87;;
39322;SDS011;25036;53.638;10.134;2023-05-07T00:40:46;7.30;;;6.60;;
39322;SDS011;25036;53.638;10.134;2023-05-07T00:41:46;8.17;;;6.47;;
39322;SDS011;25036;53.638;10.134;2023-05-07T00:42:47;8.20;;;6.80;;
39322;SDS011;25036;53.638;10.134;2023-05-07T00:43:48;10.77;;;6.72;;
39322;SDS011;25036;53.638;10.134;2023-05-07T00:44:51;7.30;;;6.45;;
39322;SDS011;25036;53.638;10.134;2023-05-07T00:45:51;8.60;;;6.67;;
39322;SDS011;25036;53.638;10.134;2023-05-07T00:46:52;7.68;;;6.97;;
39322;SDS011;25036;53.638;10.134;2023-05-07T00:47:55;7.53;;;6.78;;
39322;SDS011;25036;53.638;10.134;2023-05-07T00:48:57;8.30;;;7.50;;
39322;SDS011;25036;53.638;10.134;2023-05-07T00:49:57;7.63;;;6.82;;
39322;SDS011;25036;53.638;10.134;2023-05-07T00:50:57;6.77;;;6.17;;
39322;SDS011;25036;53.638;10.134;2023-05-07T00:51:57;7.50;;;6.60;;
39322;SDS011;25036;53.638;10.134;2023-05-07T00:52:58;7.50;;;6.23;;
39322;SDS011;25036;53.638;10.134;2023-05-07T00:53:59;7.40;;;6.70;;
39322;SDS011;25036;53.638;10.134;2023-05-07T00:55:04;9.23;;;6.38;;
39322;SDS011;25036;53.638;10.134;2023-05-07T00:56:04;6.82;;;6.03;;
39322;SDS011;25036;53.638;10.134;2023-05-07T00:57:06;6.63;;;5.93;;
39322;SDS011;25036;53.638;10.134;2023-05-07T00:58:06;7.95;;;6.60;;
39322;SDS011;25036;53.638;10.134;2023-05-07T00:59:06;7.03;;;5.80;;
39322;SDS011;25036;53.638;10.134;2023-05-07T01:00:07;6.47;;;5.85;;
39322;SDS011;25036;53.638;10.134;2023-05-07T01:01:08;7.30;;;6.57;;
39322;SDS011;25036;53.638;10.134;2023-05-07T01:02:08;6.85;;;6.15;;
39322;SDS011;25036;53.638;10.134;2023-05-07T01:03:09;6.87;;;6.17;;
39322;SDS011;25036;53.638;10.134;2023-05-07T01:04:09;7.57;;;6.80;;
39322;SDS011;25036;53.638;10.134;2023-05-07T01:05:10;6.20;;;5.60;;
39322;SDS011;25036;53.638;10.134;2023-05-07T01:06:11;6.28;;;5.68;;
39322;SDS011;25036;53.638;10.134;2023-05-07T01:07:12;6.43;;;5.72;;
39322;SDS011;25036;53.638;10.134;2023-05-07T01:08:12;6.57;;;5.97;;
39322;SDS011;25036;53.638;10.134;2023-05-07T01:09:14;6.97;;;6.10;;
39322;SDS011;25036;53.638;10.134;2023-05-07T01:10:14;8.35;;;6.40;;
39322;SDS011;25036;53.638;10.134;2023-05-07T01:11:14;6.95;;;6.15;;
39322;SDS011;25036;53.638;10.134;2023-05-07T01:12:15;7.22;;;6.18;;
39322;SDS011;25036;53.638;10.134;2023-05-07T01:13:15;6.85;;;6.25;;
39322;SDS011;25036;53.638;10.134;2023-05-07T01:14:16;7.13;;;6.00;;
39322;SDS011;25036;53.638;10.134;2023-05-07T01:15:16;6.68;;;6.05;;
39322;SDS011;25036;53.638;10.134;2023-05-07T01:16:16;7.38;;;6.32;;
39322;SDS011;25036;53.638;10.134;2023-05-07T01:17:17;7.50;;;6.45;;
39322;SDS011;25036;53.638;10.134;2023-05-07T01:18:17;8.18;;;6.90;;
39322;SDS011;25036;53.638;10.134;2023-05-07T01:19:17;7.65;;;6.28;;
39322;SDS011;25036;53.638;10.134;2023-05-07T01:20:18;7.45;;;6.68;;
39322;SDS011;25036;53.638;10.134;2023-05-07T01:21:19;6.57;;;5.82;;
39322;SDS011;25036;53.638;10.134;2023-05-07T01:22:33;7.68;;;6.13;;
39322;SDS011;25036;53.638;10.134;2023-05-07T01:24:36;7.05;;;6.43;;
39322;SDS011;25036;53.638;10.134;2023-05-07T01:25:36;6.43;;;5.82;;
39322;SDS011;25036;53.638;10.134;2023-05-07T01:26:36;6.73;;;6.03;;
39322;SDS011;25036;53.638;10.134;2023-05-07T01:27:36;6.47;;;5.80;;
39322;SDS011;25036;53.638;10.134;2023-05-07T01:28:37;7.22;;;6.50;;
39322;SDS011;25036;53.638;10.134;2023-05-07T01:29:37;7.17;;;6.47;;
39322;SDS011;25036;53.638;10.134;2023-05-07T01:30:37;6.80;;;5.93;;
39322;SDS011;25036;53.638;10.134;2023-05-07T01:31:38;7.75;;;6.03;;
39322;SDS011;25036;53.638;10.134;2023-05-07T01:32:43;7.78;;;5.63;;
39322;SDS011;25036;53.638;10.134;2023-05-07T01:33:45;7.10;;;5.57;;
39322;SDS011;25036;53.638;10.134;2023-05-07T01:34:48;5.72;;;5.22;;
39322;SDS011;25036;53.638;10.134;2023-05-07T01:35:50;6.20;;;5.60;;
39322;SDS011;25036;53.638;10.134;2023-05-07T01:36:52;7.00;;;5.95;;
39322;SDS011;25036;53.638;10.134;2023-05-07T01:37:52;6.10;;;5.47;;
39322;SDS011;25036;53.638;10.134;2023-05-07T01:38:52;6.40;;;5.80;;
39322;SDS011;25036;53.638;10.134;2023-05-07T01:39:53;5.72;;;5.13;;
39322;SDS011;25036;53.638;10.134;2023-05-07T01:40:53;7.00;;;5.57;;
39322;SDS011;25036;53.638;10.134;2023-05-07T01:41:56;7.28;;;5.57;;
39322;SDS011;25036;53.638;10.134;2023-05-07T01:42:58;6.05;;;5.40;;
39322;SDS011;25036;53.638;10.134;2023-05-07T01:43:58;6.75;;;5.63;;
39322;SDS011;25036;53.638;10.134;2023-05-07T01:44:59;10.27;;;6.03;;
39322;SDS011;25036;53.638;10.134;2023-05-07T01:45:59;6.45;;;5.20;;
39322;SDS011;25036;53.638;10.134;2023-05-07T01:47:00;6.43;;;5.40;;
39322;SDS011;25036;53.638;10.134;2023-05-07T01:48:01;6.78;;;5.45;;
39322;SDS011;25036;53.638;10.134;2023-05-07T01:49:01;7.72;;;5.80;;
39322;SDS011;25036;53.638;10.134;2023-05-07T01:50:02;5.82;;;5.22;;
39322;SDS011;25036;53.638;10.134;2023-05-07T01:51:03;5.90;;;5.10;;
39322;SDS011;25036;53.638;10.134;2023-05-07T01:52:03;5.82;;;5.22;;
39322;SDS011;25036;53.638;10.134;2023-05-07T01:53:03;5.90;;;5.30;;
39322;SDS011;25036;53.638;10.134;2023-05-07T01:54:04;5.93;;;5.13;;
39322;SDS011;25036;53.638;10.134;2023-05-07T01:55:04;5.30;;;4.80;;
39322;SDS011;25036;53.638;10.134;2023-05-07T01:56:04;6.07;;;5.10;;
39322;SDS011;25036;53.638;10.134;2023-05-07T01:57:05;5.90;;;5.30;;
39322;SDS011;25036;53.638;10.134;2023-05-07T01:58:05;5.82;;;5.32;;
39322;SDS011;25036;53.638;10.134;2023-05-07T01:59:05;5.78;;;5.25;;
39322;SDS011;25036;53.638;10.134;2023-05-07T02:00:06;5.57;;;5.07;;
39322;SDS011;25036;53.638;10.134;2023-05-07T02:01:06;5.78;;;5.13;;
39322;SDS011;25036;53.638;10.134;2023-05-07T02:02:06;5.47;;;4.97;;
39322;SDS011;25036;53.638;10.134;2023-05-07T02:03:06;7.63;;;5.47;;
39322;SDS011;25036;53.638;10.134;2023-05-07T02:04:06;5.87;;;5.23;;
39322;SDS011;25036;53.638;10.134;2023-05-07T02:05:06;6.17;;;5.30;;
39322;SDS011;25036;53.638;10.134;2023-05-07T02:06:07;5.78;;;5.18;;
39322;SDS011;25036;53.638;10.134;2023-05-07T02:07:07;5.65;;;5.05;;
39322;SDS011;25036;53.638;10.134;2023-05-07T02:08:07;6.10;;;5.50;;
39322;SDS011;25036;53.638;10.134;2023-05-07T02:09:07;7.23;;;5.87;;
39322;SDS011;25036;53.638;10.134;2023-05-07T02:10:09;6.18;;;5.30;;
39322;SDS011;25036;53.638;10.134;2023-05-07T02:11:09;5.90;;;5.30;;
39322;SDS011;25036;53.638;10.134;2023-05-07T02:12:09;6.90;;;5.65;;
39322;SDS011;25036;53.638;10.134;2023-05-07T02:13:09;6.50;;;5.57;;
39322;SDS011;25036;53.638;10.134;2023-05-07T02:14:09;6.30;;;5.47;;
39322;SDS011;25036;53.638;10.134;2023-05-07T02:15:10;6.72;;;5.63;;
39322;SDS011;25036;53.638;10.134;2023-05-07T02:16:10;5.70;;;5.05;;
39322;SDS011;25036;53.638;10.134;2023-05-07T02:17:10;6.10;;;5.50;;
39322;SDS011;25036;53.638;10.134;2023-05-07T02:18:11;6.47;;;5.23;;
39322;SDS011;25036;53.638;10.134;2023-05-07T02:19:11;6.70;;;5.75;;
39322;SDS011;25036;53.638;10.134;2023-05-07T02:20:11;7.47;;;5.90;;
39322;SDS011;25036;53.638;10.134;2023-05-07T02:21:13;6.65;;;4.93;;
39322;SDS011;25036;53.638;10.134;2023-05-07T02:22:13;6.87;;;5.13;;
39322;SDS011;25036;53.638;10.134;2023-05-07T02:23:13;5.93;;;5.32;;
39322;SDS011;25036;53.638;10.134;2023-05-07T02:24:13;5.83;;;5.23;;
39322;SDS011;25036;53.638;10.134;2023-05-07T02:25:13;9.77;;;6.40;;
39322;SDS011;25036;53.638;10.134;2023-05-07T02:26:14;6.50;;;5.90;;
39322;SDS011;25036;53.638;10.134;2023-05-07T02:27:14;6.47;;;5.57;;
39322;SDS011;25036;53.638;10.134;2023-05-07T02:28:14;6.55;;;5.82;;
39322;SDS011;25036;53.638;10.134;2023-05-07T02:29:15;5.80;;;5.30;;
39322;SDS011;25036;53.638;10.134;2023-05-07T02:30:15;6.57;;;5.90;;
39322;SDS011;25036;53.638;10.134;2023-05-07T02:31:15;6.45;;;5.85;;
39322;SDS011;25036;53.638;10.134;2023-05-07T02:32:15;6.10;;;5.10;;
39322;SDS011;25036;53.638;10.134;2023-05-07T02:33:15;6.00;;;5.43;;
39322;SDS011;25036;53.638;10.134;2023-05-07T02:34:16;7.53;;;5.78;;
39322;SDS011;25036;53.638;10.134;2023-05-07T02:35:16;6.30;;;5.68;;
39322;SDS011;25036;53.638;10.134;2023-05-07T02:36:16;5.97;;;5.38;;
39322;SDS011;25036;53.638;10.134;2023-05-07T02:37:17;7.18;;;6.38;;
39322;SDS011;25036;53.638;10.134;2023-05-07T02:38:17;6.23;;;5.63;;
39322;SDS011;25036;53.638;10.134;2023-05-07T02:39:17;6.38;;;5.63;;
39322;SDS011;25036;53.638;10.134;2023-05-07T02:40:17;6.40;;;5.75;;
39322;SDS011;25036;53.638;10.134;2023-05-07T02:41:17;6.55;;;5.88;;
39322;SDS011;25036;53.638;10.134;2023-05-07T02:42:17;6.50;;;5.00;;
39322;SDS011;25036;53.638;10.134;2023-05-07T02:43:18;7.77;;;5.90;;
39322;SDS011;25036;53.638;10.134;2023-05-07T02:44:18;6.80;;;6.10;;
39322;SDS011;25036;53.638;10.134;2023-05-07T02:45:18;6.33;;;5.60;;
39322;SDS011;25036;53.638;10.134;2023-05-07T02:46:18;6.40;;;5.20;;
39322;SDS011;25036;53.638;10.134;2023-05-07T02:47:18;6.93;;;5.63;;
39322;SDS011;25036;53.638;10.134;2023-05-07T02:48:18;7.03;;;6.33;;
39322;SDS011;25036;53.638;10.134;2023-05-07T02:49:18;6.37;;;5.77;;
39322;SDS011;25036;53.638;10.134;2023-05-07T02:50:18;7.20;;;5.93;;
39322;SDS011;25036;53.638;10.134;2023-05-07T02:51:19;6.27;;;5.60;;
39322;SDS011;25036;53.638;10.134;2023-05-07T02:52:20;7.10;;;6.15;;
39322;SDS011;25036;53.638;10.134;2023-05-07T02:53:20;8.85;;;6.03;;
39322;SDS011;25036;53.638;10.134;2023-05-07T02:54:20;6.47;;;5.88;;
39322;SDS011;25036;53.638;10.134;2023-05-07T02:55:21;7.37;;;6.27;;
39322;SDS011;25036;53.638;10.134;2023-05-07T02:56:21;5.95;;;5.45;;
39322;SDS011;25036;53.638;10.134;2023-05-07T02:57:21;6.53;;;5.85;;
39322;SDS011;25036;53.638;10.134;2023-05-07T02:58:21;6.97;;;5.70;;
39322;SDS011;25036;53.638;10.134;2023-05-07T02:59:21;7.85;;;5.68;;
39322;SDS011;25036;53.638;10.134;2023-05-07T03:00:22;5.97;;;5.30;;
39322;SDS011;25036;53.638;10.134;2023-05-07T03:01:22;6.43;;;5.75;;
39322;SDS011;25036;53.638;10.134;2023-05-07T03:02:22;6.07;;;5.47;;
39322;SDS011;25036;53.638;10.134;2023-05-07T03:03:22;6.57;;;5.80;;
39322;SDS011;25036;53.638;10.134;2023-05-07T03:04:22;5.72;;;5.22;;
39322;SDS011;25036;53.638;10.134;2023-05-07T03:05:22;6.07;;;5.47;;
39322;SDS011;25036;53.638;10.134;2023-05-07T03:06:23;7.10;;;5.77;;
39322;SDS011;25036;53.638;10.134;2023-05-07T03:07:23;6.95;;;6.10;;
39322;SDS011;25036;53.638;10.134;2023-05-07T03:08:23;6.93;;;6.27;;
39322;SDS011;25036;53.638;10.134;2023-05-07T03:09:24;6.18;;;5.57;;
39322;SDS011;25036;53.638;10.134;2023-05-07T03:10:24;7.20;;;6.22;;
39322;SDS011;25036;53.638;10.134;2023-05-07T03:11:24;7.32;;;6.05;;
39322;SDS011;25036;53.638;10.134;2023-05-07T03:12:25;6.32;;;5.60;;
39322;SDS011;25036;53.638;10.134;2023-05-07T03:13:25;7.13;;;6.07;;
39322;SDS011;25036;53.638;10.134;2023-05-07T03:14:25;6.50;;;5.88;;
39322;SDS011;25036;53.638;10.134;2023-05-07T03:15:25;7.33;;;6.20;;
39322;SDS011;25036;53.638;10.134;2023-05-07T03:16:25;7.00;;;5.60;;
39322;SDS011;25036;53.638;10.134;2023-05-07T03:17:25;8.30;;;5.40;;
39322;SDS011;25036;53.638;10.134;2023-05-07T03:18:26;8.77;;;5.90;;
39322;SDS011;25036;53.638;10.134;2023-05-07T03:19:26;6.73;;;6.13;;
39322;SDS011;25036;53.638;10.134;2023-05-07T03:20:26;6.32;;;5.45;;
39322;SDS011;25036;53.638;10.134;2023-05-07T03:21:26;7.70;;;6.20;;
39322;SDS011;25036;53.638;10.134;2023-05-07T03:22:26;6.40;;;5.80;;
39322;SDS011;25036;53.638;10.134;2023-05-07T03:23:26;6.70;;;6.00;;
39322;SDS011;25036;53.638;10.134;2023-05-07T03:24:27;6.70;;;5.80;;
39322;SDS011;25036;53.638;10.134;2023-05-07T03:25:27;6.33;;;5.40;;
39322;SDS011;25036;53.638;10.134;2023-05-07T03:26:27;6.53;;;5.82;;
39322;SDS011;25036;53.638;10.134;2023-05-07T03:27:27;6.27;;;5.60;;
39322;SDS011;25036;53.638;10.134;2023-05-07T03:28:27;7.63;;;5.97;;
39322;SDS011;25036;53.638;10.134;2023-05-07T03:29:27;7.30;;;5.60;;
39322;SDS011;25036;53.638;10.134;2023-05-07T03:30:28;6.72;;;6.03;;
39322;SDS011;25036;53.638;10.134;2023-05-07T03:31:28;6.63;;;5.93;;
39322;SDS011;25036;53.638;10.134;2023-05-07T03:32:28;6.10;;;5.50;;
39322;SDS011;25036;53.638;10.134;2023-05-07T03:33:28;6.53;;;5.40;;
39322;SDS011;25036;53.638;10.134;2023-05-07T03:34:28;6.38;;;5.70;;
39322;SDS011;25036;53.638;10.134;2023-05-07T03:35:28;7.93;;;5.33;;
39322;SDS011;25036;53.638;10.134;2023-05-07T03:36:29;6.73;;;5.50;;
39322;SDS011;25036;53.638;10.134;2023-05-07T03:37:29;5.70;;;5.17;;
39322;SDS011;25036;53.638;10.134;2023-05-07T03:38:29;6.20;;;5.60;;
39322;SDS011;25036;53.638;10.134;2023-05-07T03:39:29;6.57;;;5.87;;
39322;SDS011;25036;53.638;10.134;2023-05-07T03:40:30;6.93;;;5.70;;
39322;SDS011;25036;53.638;10.134;2023-05-07T03:41:30;5.77;;;5.13;;
39322;SDS011;25036;53.638;10.134;2023-05-07T03:42:30;6.93;;;5.67;;
39322;SDS011;25036;53.638;10.134;2023-05-07T03:43:30;6.05;;;5.45;;
39322;SDS011;25036;53.638;10.134;2023-05-07T03:44:31;6.43;;;5.20;;
39322;SDS011;25036;53.638;10.134;2023-05-07T03:45:31;5.70;;;5.20;;
39322;SDS011;25036;53.638;10.134;2023-05-07T03:46:31;6.10;;;5.50;;
39322;SDS011;25036;53.638;10.134;2023-05-07T03:47:32;5.57;;;5.07;;
39322;SDS011;25036;53.638;10.134;2023-05-07T03:48:32;5.30;;;4.80;;
39322;SDS011;25036;53.638;10.134;2023-05-07T03:49:33;6.17;;;5.57;;
39322;SDS011;25036;53.638;10.134;2023-05-07T03:50:33;6.65;;;5.70;;
39322;SDS011;25036;53.638;10.134;2023-05-07T03:51:33;6.90;;;5.97;;
39322;SDS011;25036;53.638;10.134;2023-05-07T03:52:33;5.90;;;5.30;;
39322;SDS011;25036;53.638;10.134;2023-05-07T03:53:33;5.50;;;4.88;;
39322;SDS011;25036;53.638;10.134;2023-05-07T03:54:33;5.90;;;5.40;;
39322;SDS011;25036;53.638;10.134;2023-05-07T03:55:33;6.37;;;5.27;;
39322;SDS011;25036;53.638;10.134;2023-05-07T03:56:34;5.63;;;5.07;;
39322;SDS011;25036;53.638;10.134;2023-05-07T03:57:34;7.33;;;5.60;;
39322;SDS011;25036;53.638;10.134;2023-05-07T03:58:34;5.73;;;5.00;;
39322;SDS011;25036;53.638;10.134;2023-05-07T03:59:34;6.18;;;5.57;;
39322;SDS011;25036;53.638;10.134;2023-05-07T04:00:35;5.90;;;5.30;;
39322;SDS011;25036;53.638;10.134;2023-05-07T04:01:38;5.60;;;5.10;;
39322;SDS011;25036;53.638;10.134;2023-05-07T04:02:38;6.07;;;5.27;;
39322;SDS011;25036;53.638;10.134;2023-05-07T04:03:38;5.97;;;5.13;;
39322;SDS011;25036;53.638;10.134;2023-05-07T04:04:38;6.17;;;5.20;;
39322;SDS011;25036;53.638;10.134;2023-05-07T04:05:38;5.65;;;5.13;;
39322;SDS011;25036;53.638;10.134;2023-05-07T04:06:38;6.23;;;5.37;;
39322;SDS011;25036;53.638;10.134;2023-05-07T04:07:38;5.73;;;5.17;;
39322;SDS011;25036;53.638;10.134;2023-05-07T04:08:39;6.47;;;5.60;;
39322;SDS011;25036;53.638;10.134;2023-05-07T04:09:39;5.83;;;5.20;;
39322;SDS011;25036;53.638;10.134;2023-05-07T04:10:39;5.53;;;4.88;;
39322;SDS011;25036;53.638;10.134;2023-05-07T04:11:39;6.90;;;5.35;;
39322;SDS011;25036;53.638;10.134;2023-05-07T04:12:40;5.53;;;4.95;;
39322;SDS011;25036;53.638;10.134;2023-05-07T04:13:40;5.90;;;5.30;;
39322;SDS011;25036;53.638;10.134;2023-05-07T04:14:40;5.93;;;5.33;;
39322;SDS011;25036;53.638;10.134;2023-05-07T04:15:40;5.77;;;5.17;;
39322;SDS011;25036;53.638;10.134;2023-05-07T04:16:40;6.73;;;5.30;;
39322;SDS011;25036;53.638;10.134;2023-05-07T04:17:40;5.83;;;4.90;;
39322;SDS011;25036;53.638;10.134;2023-05-07T04:18:41;5.95;;;5.30;;
39322;SDS011;25036;53.638;10.134;2023-05-07T04:19:41;6.18;;;5.32;;
39322;SDS011;25036;53.638;10.134;2023-05-07T04:20:45;7.13;;;5.28;;
39322;SDS011;25036;53.638;10.134;2023-05-07T04:21:45;7.95;;;6.10;;
39322;SDS011;25036;53.638;10.134;2023-05-07T04:22:45;5.80;;;5.20;;
39322;SDS011;25036;53.638;10.134;2023-05-07T04:23:46;5.43;;;4.93;;
39322;SDS011;25036;53.638;10.134;2023-05-07T04:24:46;6.03;;;5.43;;
39322;SDS011;25036;53.638;10.134;2023-05-07T04:25:46;5.60;;;5.10;;
39322;SDS011;25036;53.638;10.134;2023-05-07T04:26:46;6.30;;;5.40;;
39322;SDS011;25036;53.638;10.134;2023-05-07T04:27:46;6.10;;;5.45;;
39322;SDS011;25036;53.638;10.134;2023-05-07T04:28:46;6.50;;;5.90;;
39322;SDS011;25036;53.638;10.134;2023-05-07T04:29:47;6.00;;;5.40;;
39322;SDS011;25036;53.638;10.134;2023-05-07T04:30:47;5.90;;;5.03;;
39322;SDS011;25036;53.638;10.134;2023-05-07T04:31:47;5.97;;;5.38;;
39322;SDS011;25036;53.638;10.134;2023-05-07T04:32:47;8.60;;;6.50;;
39322;SDS011;25036;53.638;10.134;2023-05-07T04:33:48;5.88;;;5.22;;
39322;SDS011;25036;53.638;10.134;2023-05-07T04:34:48;6.50;;;5.87;;
39322;SDS011;25036;53.638;10.134;2023-05-07T04:35:48;6.37;;;5.40;;
39322;SDS011;25036;53.638;10.134;2023-05-07T04:36:48;6.15;;;5.13;;
39322;SDS011;25036;53.638;10.134;2023-05-07T04:37:48;6.53;;;5.87;;
39322;SDS011;25036;53.638;10.134;2023-05-07T04:38:48;6.17;;;5.40;;
39322;SDS011;25036;53.638;10.134;2023-05-07T04:39:49;6.83;;;5.07;;
39322;SDS011;25036;53.638;10.134;2023-05-07T04:40:49;5.63;;;5.13;;
39322;SDS011;25036;53.638;10.134;2023-05-07T04:41:49;5.75;;;5.15;;
39322;SDS011;25036;53.638;10.134;2023-05-07T04:42:49;6.00;;;5.40;;
39322;SDS011;25036;53.638;10.134;2023-05-07T04:43:50;6.05;;;4.88;;
39322;SDS011;25036;53.638;10.134;2023-05-07T04:44:52;5.28;;;4.78;;
39322;SDS011;25036;53.638;10.134;2023-05-07T04:45:52;5.60;;;5.00;;
39322;SDS011;25036;53.638;10.134;2023-05-07T04:46:53;5.27;;;4.50;;
39322;SDS011;25036;53.638;10.134;2023-05-07T04:47:53;6.83;;;5.17;;
39322;SDS011;25036;53.638;10.134;2023-05-07T04:48:53;5.77;;;5.17;;
39322;SDS011;25036;53.638;10.134;2023-05-07T04:49:53;7.77;;;5.10;;
39322;SDS011;25036;53.638;10.134;2023-05-07T04:50:53;6.63;;;5.50;;
39322;SDS011;25036;53.638;10.134;2023-05-07T04:51:53;6.40;;;5.47;;
39322;SDS011;25036;53.638;10.134;2023-05-07T04:52:53;6.07;;;5.30;;
39322;SDS011;25036;53.638;10.134;2023-05-07T04:53:53;5.97;;;4.50;;
39322;SDS011;25036;53.638;10.134;2023-05-07T04:54:54;6.25;;;5.38;;
39322;SDS011;25036;53.638;10.134;2023-05-07T04:55:54;6.75;;;4.45;;
39322;SDS011;25036;53.638;10.134;2023-05-07T04:56:55;6.05;;;5.15;;
39322;SDS011;25036;53.638;10.134;2023-05-07T04:57:55;5.32;;;4.70;;
39322;SDS011;25036;53.638;10.134;2023-05-07T04:58:56;7.30;;;5.27;;
39322;SDS011;25036;53.638;10.134;2023-05-07T04:59:56;5.80;;;5.03;;
39322;SDS011;25036;53.638;10.134;2023-05-07T05:00:57;5.70;;;5.07;;
39322;SDS011;25036;53.638;10.134;2023-05-07T05:01:57;5.15;;;4.53;;
39322;SDS011;25036;53.638;10.134;2023-05-07T05:02:57;4.80;;;4.40;;
39322;SDS011;25036;53.638;10.134;2023-05-07T05:03:57;5.47;;;4.80;;
39322;SDS011;25036;53.638;10.134;2023-05-07T05:05:00;5.32;;;4.72;;
39322;SDS011;25036;53.638;10.134;2023-05-07T05:06:01;6.03;;;4.75;;
39322;SDS011;25036;53.638;10.134;2023-05-07T05:07:01;5.10;;;4.57;;
39322;SDS011;25036;53.638;10.134;2023-05-07T05:08:02;6.57;;;4.72;;
39322;SDS011;25036;53.638;10.134;2023-05-07T05:09:02;5.07;;;4.57;;
39322;SDS011;25036;53.638;10.134;2023-05-07T05:10:04;5.65;;;4.55;;
39322;SDS011;25036;53.638;10.134;2023-05-07T05:11:05;5.05;;;4.53;;
39322;SDS011;25036;53.638;10.134;2023-05-07T05:12:05;5.30;;;4.72;;
39322;SDS011;25036;53.638;10.134;2023-05-07T05:13:07;4.95;;;4.43;;
39322;SDS011;25036;53.638;10.134;2023-05-07T05:14:08;4.40;;;4.00;;
39322;SDS011;25036;53.638;10.134;2023-05-07T05:15:08;4.90;;;4.40;;
39322;SDS011;25036;53.638;10.134;2023-05-07T05:16:08;4.97;;;4.47;;
39322;SDS011;25036;53.638;10.134;2023-05-07T05:17:08;5.90;;;4.37;;
39322;SDS011;25036;53.638;10.134;2023-05-07T05:18:09;5.27;;;4.77;;
39322;SDS011;25036;53.638;10.134;2023-05-07T05:19:09;5.50;;;5.00;;
39322;SDS011;25036;53.638;10.134;2023-05-07T05:20:09;5.20;;;4.70;;
39322;SDS011;25036;53.638;10.134;2023-05-07T05:21:10;5.30;;;4.80;;
39322;SDS011;25036;53.638;10.134;2023-05-07T05:22:10;5.27;;;4.77;;
39322;SDS011;25036;53.638;10.134;2023-05-07T05:23:11;5.27;;;4.50;;
39322;SDS011;25036;53.638;10.134;2023-05-07T05:24:11;5.45;;;4.63;;
39322;SDS011;25036;53.638;10.134;2023-05-07T05:25:11;5.47;;;4.47;;
39322;SDS011;25036;53.638;10.134;2023-05-07T05:26:11;5.67;;;4.57;;
39322;SDS011;25036;53.638;10.134;2023-05-07T05:27:11;5.53;;;4.57;;
39322;SDS011;25036;53.638;10.134;2023-05-07T05:28:11;5.67;;;4.80;;
39322;SDS011;25036;53.638;10.134;2023-05-07T05:29:11;5.50;;;4.53;;
39322;SDS011;25036;53.638;10.134;2023-05-07T05:30:12;6.03;;;4.28;;
39322;SDS011;25036;53.638;10.134;2023-05-07T05:31:12;5.13;;;4.30;;
39322;SDS011;25036;53.638;10.134;2023-05-07T05:32:14;5.28;;;4.07;;
39322;SDS011;25036;53.638;10.134;2023-05-07T05:33:14;4.43;;;3.80;;
39322;SDS011;25036;53.638;10.134;2023-05-07T05:34:14;4.75;;;4.05;;
39322;SDS011;25036;53.638;10.134;2023-05-07T05:35:15;5.57;;;4.13;;
39322;SDS011;25036;53.638;10.134;2023-05-07T05:36:15;4.40;;;3.83;;
39322;SDS011;25036;53.638;10.134;2023-05-07T05:37:15;4.95;;;3.72;;
39322;SDS011;25036;53.638;10.134;2023-05-07T05:38:15;4.17;;;3.77;;
39322;SDS011;25036;53.638;10.134;2023-05-07T05:39:15;4.97;;;4.33;;
39322;SDS011;25036;53.638;10.134;2023-05-07T05:40:15;5.15;;;4.30;;
39322;SDS011;25036;53.638;10.134;2023-05-07T05:41:16;5.27;;;4.20;;
39322;SDS011;25036;53.638;10.134;2023-05-07T05:42:16;5.30;;;4.70;;
39322;SDS011;25036;53.638;10.134;2023-05-07T05:43:16;6.13;;;4.80;;
39322;SDS011;25036;53.638;10.134;2023-05-07T05:44:16;5.78;;;4.57;;
39322;SDS011;25036;53.638;10.134;2023-05-07T05:45:16;4.90;;;4.40;;
39322;SDS011;25036;53.638;10.134;2023-05-07T05:46:17;5.28;;;4.70;;
39322;SDS011;25036;53.638;10.134;2023-05-07T05:47:17;6.43;;;4.67;;
39322;SDS011;25036;53.638;10.134;2023-05-07T05:48:17;4.90;;;4.40;;
39322;SDS011;25036;53.638;10.134;2023-05-07T05:49:17;5.13;;;4.63;;
39322;SDS011;25036;53.638;10.134;2023-05-07T05:50:18;5.93;;;4.70;;
39322;SDS011;25036;53.638;10.134;2023-05-07T05:51:18;5.75;;;4.80;;
39322;SDS011;25036;53.638;10.134;2023-05-07T05:52:18;5.50;;;5.00;;
39322;SDS011;25036;53.638;10.134;2023-05-07T05:53:18;4.87;;;4.37;;
39322;SDS011;25036;53.638;10.134;2023-05-07T05:54:18;4.83;;;4.33;;
39322;SDS011;25036;53.638;10.134;2023-05-07T05:55:18;6.63;;;5.07;;
39322;SDS011;25036;53.638;10.134;2023-05-07T05:56:19;4.75;;;4.20;;
39322;SDS011;25036;53.638;10.134;2023-05-07T05:57:21;5.07;;;4.57;;
39322;SDS011;25036;53.638;10.134;2023-05-07T05:58:21;5.13;;;4.37;;
39322;SDS011;25036;53.638;10.134;2023-05-07T05:59:21;4.63;;;4.07;;